Time;durP1;ratioP1;P1;durP2;ratioP2;P2;SDS_P1;SDS_P2;PMS_P1;PMS_P2;Temp;Humidity;BMP_temperature;BMP_pressure;BME280_temperature;BME280_humidity;BME280_pressure;Samples;Min_cycle;Max_cycle;Signal;HPM_P1;HPM_P2
2021/08/19 00:01:55;;;;;;;20.55;10.43;;;;;;;16.86;82.90;101134.06;5113753;28;20039;-68
2021/08/19 00:04:24;;;;;;;21.65;10.60;;;;;;;16.83;83.32;101122.91;5111771;28;20081;-68
2021/08/19 00:06:50;;;;;;;24.60;10.65;;;;;;;16.97;82.42;101130.09;5078606;28;20521;-68
2021/08/19 00:09:17;;;;;;;22.35;11.05;;;;;;;16.79;83.30;101119.72;5111910;28;20437;-69
2021/08/19 00:11:44;;;;;;;22.33;10.70;;;;;;;16.81;83.36;101131.09;5112366;28;20040;-68
2021/08/19 00:14:11;;;;;;;20.65;10.70;;;;;;;16.89;82.74;101131.00;5095821;28;20047;-68
2021/08/19 00:16:41;;;;;;;22.95;10.73;;;;;;;16.86;82.67;101120.69;5093270;28;20051;-68
2021/08/19 00:19:22;;;;;;;20.67;10.55;;;;;;;16.97;82.50;101123.88;5109961;28;20373;-68
2021/08/19 00:21:54;;;;;;;22.85;10.20;;;;;;;16.96;82.46;101119.56;5113168;28;20086;-68
2021/08/19 00:24:21;;;;;;;18.40;9.45;;;;;;;16.84;83.02;101121.88;5113170;28;20491;-68
2021/08/19 00:26:50;;;;;;;22.05;10.52;;;;;;;16.84;83.23;101121.88;5100026;28;20047;-68
2021/08/19 00:29:17;;;;;;;24.65;10.65;;;;;;;16.91;82.77;101127.31;5111740;28;20047;-68
2021/08/19 00:31:44;;;;;;;23.05;9.65;;;;;;;17.03;82.12;101118.63;5083859;28;20488;-68
2021/08/19 00:34:12;;;;;;;22.90;9.70;;;;;;;17.06;81.88;101112.03;5126966;27;20039;-68
2021/08/19 00:36:39;;;;;;;22.75;9.98;;;;;;;16.98;82.24;101118.34;5111945;28;20070;-68
2021/08/19 00:39:12;;;;;;;27.20;10.65;;;;;;;16.98;82.13;101110.31;5113174;28;20042;-68
2021/08/19 00:41:52;;;;;;;20.37;10.23;;;;;;;17.02;81.84;101119.63;5113014;28;20035;-68
2021/08/19 00:44:22;;;;;;;23.58;10.32;;;;;;;16.99;82.10;101122.69;5111762;28;20966;-68
2021/08/19 00:46:50;;;;;;;21.23;10.15;;;;;;;17.16;81.46;101115.25;5112895;28;20519;-68
2021/08/19 00:49:17;;;;;;;23.95;10.75;;;;;;;17.02;82.18;101114.25;5111731;28;20039;-68
2021/08/19 00:51:53;;;;;;;22.60;10.73;;;;;;;17.07;81.75;101109.16;5113203;28;20503;-68
2021/08/19 00:54:27;;;;;;;19.60;9.85;;;;;;;17.04;81.71;101111.41;5111569;28;20039;-68
2021/08/19 00:56:57;;;;;;;24.65;10.18;;;;;;;16.96;82.21;101104.31;5094744;28;20047;-68
2021/08/19 00:59:26;;;;;;;23.33;10.25;;;;;;;16.99;81.97;101111.13;5112907;28;20042;-69
2021/08/19 01:01:58;;;;;;;24.38;11.05;;;;;;;16.95;81.66;101105.31;5074734;28;20484;-68
2021/08/19 01:04:42;;;;;;;23.13;11.60;;;;;;;16.92;82.12;101107.53;5090438;28;20097;-69
2021/08/19 01:07:21;;;;;;;20.80;10.02;;;;;;;17.00;81.94;101107.44;5092667;28;20085;-68
2021/08/19 01:10:04;;;;;;;22.55;10.75;;;;;;;16.97;82.14;101105.13;5092550;28;20119;-68
2021/08/19 01:12:48;;;;;;;22.90;10.55;;;;;;;16.99;82.00;101103.09;5109971;28;20046;-68
2021/08/19 01:15:27;;;;;;;21.23;9.95;;;;;;;17.12;81.67;101108.63;5111717;28;20040;-68
2021/08/19 01:18:01;;;;;;;23.48;10.48;;;;;;;17.18;81.41;101109.72;5097105;28;20120;-68
2021/08/19 01:20:35;;;;;;;23.30;10.00;;;;;;;17.15;81.12;101102.03;5091768;28;20569;-68
2021/08/19 01:23:08;;;;;;;21.65;10.23;;;;;;;17.08;81.52;101099.28;5092510;28;20082;-69
2021/08/19 01:25:37;;;;;;;23.92;10.05;;;;;;;16.96;82.02;101098.13;5093230;28;20051;-68
2021/08/19 01:28:04;;;;;;;26.48;11.15;;;;;;;16.99;81.63;101098.56;5106574;28;20146;-68
2021/08/19 01:30:39;;;;;;;19.83;10.65;;;;;;;17.04;81.82;101096.13;5100614;28;20032;-68
2021/08/19 01:33:15;;;;;;;21.92;9.77;;;;;;;17.01;81.96;101093.03;5105168;28;20043;-68
2021/08/19 01:35:44;;;;;;;24.80;11.45;;;;;;;17.13;81.15;101098.72;5092397;28;20048;-68
2021/08/19 01:38:16;;;;;;;21.37;10.13;;;;;;;17.06;81.43;101091.44;5091150;28;20074;-68
2021/08/19 01:40:50;;;;;;;27.10;11.70;;;;;;;17.10;81.47;101097.25;5092275;28;20138;-69
2021/08/19 01:43:18;;;;;;;23.90;10.90;;;;;;;17.00;81.65;101094.84;5088949;28;20454;-68
2021/08/19 01:45:45;;;;;;;26.30;10.50;;;;;;;17.06;81.33;101096.81;5097741;28;20127;-69
2021/08/19 01:48:15;;;;;;;19.83;9.90;;;;;;;17.02;81.34;101095.50;5110923;28;20051;-69
2021/08/19 01:50:41;;;;;;;22.67;10.43;;;;;;;17.01;81.44;101099.22;5093997;28;20124;-69
2021/08/19 01:53:09;;;;;;;19.95;10.73;;;;;;;17.05;81.58;101094.31;5111409;28;20068;-69
2021/08/19 01:55:36;;;;;;;25.60;10.98;;;;;;;17.03;81.55;101091.00;5114887;28;20500;-68
2021/08/19 01:58:03;;;;;;;21.55;10.63;;;;;;;16.99;81.59;101087.84;5115839;28;20048;-68
2021/08/19 02:00:30;;;;;;;23.27;10.65;;;;;;;17.05;81.48;101095.13;5116136;28;20036;-68
2021/08/19 02:03:00;;;;;;;24.40;10.18;;;;;;;17.07;81.04;101093.09;5115873;28;20082;-69
2021/08/19 02:05:27;;;;;;;23.92;9.88;;;;;;;17.11;80.98;101093.53;5115493;28;20049;-68
2021/08/19 02:08:00;;;;;;;23.48;9.80;;;;;;;17.07;81.31;101090.41;5114700;28;20496;-68
2021/08/19 02:10:27;;;;;;;24.90;10.07;;;;;;;17.09;81.08;101092.91;5116004;28;20126;-68
2021/08/19 02:12:54;;;;;;;24.38;10.25;;;;;;;17.10;81.38;101094.59;5115501;28;20043;-68
2021/08/19 02:15:20;;;;;;;23.10;9.88;;;;;;;17.03;81.58;101091.81;5114186;28;20123;-69
2021/08/19 02:17:47;;;;;;;24.73;10.25;;;;;;;17.05;81.89;101099.66;5097374;28;20044;-68
2021/08/19 02:20:14;;;;;;;21.20;10.38;;;;;;;17.14;81.18;101095.84;5114016;28;20059;-68
2021/08/19 02:22:40;;;;;;;31.73;11.20;;;;;;;17.16;80.93;101096.50;5115806;28;20065;-69
2021/08/19 02:25:08;;;;;;;26.00;10.60;;;;;;;17.16;81.40;101095.69;5115727;28;20128;-68
2021/08/19 02:27:34;;;;;;;26.73;10.40;;;;;;;16.99;82.11;101095.03;5112184;28;20040;-69
2021/08/19 02:30:02;;;;;;;22.45;10.75;;;;;;;17.03;82.26;101088.31;5107816;28;20040;-68
2021/08/19 02:32:28;;;;;;;27.13;10.60;;;;;;;17.01;82.40;101099.22;5080297;28;20032;-68
2021/08/19 02:34:57;;;;;;;23.88;11.38;;;;;;;16.99;82.70;101095.03;5108534;28;20531;-69
2021/08/19 02:37:25;;;;;;;23.38;11.13;;;;;;;16.90;83.01;101091.66;5114184;28;20035;-68
2021/08/19 02:39:51;;;;;;;21.42;11.43;;;;;;;16.96;83.08;101092.75;5115232;28;20422;-68
2021/08/19 02:42:18;;;;;;;22.80;11.73;;;;;;;16.96;83.29;101090.91;5078277;28;20534;-69
2021/08/19 02:44:45;;;;;;;29.00;11.98;;;;;;;16.79;83.98;101087.56;5115205;28;20051;-68
2021/08/19 02:47:12;;;;;;;29.15;12.57;;;;;;;16.71;84.70;101087.66;5096137;28;20059;-68
2021/08/19 02:49:39;;;;;;;25.10;12.25;;;;;;;16.82;84.96;101092.53;5114826;28;20046;-68
2021/08/19 02:52:06;;;;;;;25.17;12.32;;;;;;;16.66;85.69;101088.25;5097064;28;20047;-68
2021/08/19 02:54:33;;;;;;;26.70;12.48;;;;;;;16.68;85.98;101086.19;5113746;28;20052;-68
2021/08/19 02:57:00;;;;;;;26.20;12.38;;;;;;;16.69;85.68;101084.34;5113709;28;20039;-68
2021/08/19 02:59:27;;;;;;;25.20;12.88;;;;;;;16.76;85.66;101087.94;5113208;28;20503;-68
2021/08/19 03:01:54;;;;;;;27.70;12.73;;;;;;;16.61;86.46;101089.81;5113426;28;20048;-68
2021/08/19 03:04:21;;;;;;;26.48;12.48;;;;;;;16.54;86.96;101080.84;5114790;28;20039;-69
2021/08/19 03:06:48;;;;;;;23.08;12.65;;;;;;;16.46;87.47;101082.63;5114974;28;20039;-69
2021/08/19 03:09:14;;;;;;;27.85;13.45;;;;;;;16.65;86.61;101083.88;5114385;28;20484;-69
2021/08/19 03:11:41;;;;;;;29.08;13.07;;;;;;;16.59;86.71;101089.16;5113194;28;20431;-69
2021/08/19 03:14:08;;;;;;;25.58;13.27;;;;;;;16.61;86.87;101081.78;5112960;28;20063;-68
2021/08/19 03:16:35;;;;;;;27.30;12.90;;;;;;;16.47;87.14;101075.41;5112885;28;20114;-68
2021/08/19 03:19:02;;;;;;;28.85;13.15;;;;;;;16.49;87.30;101073.38;5114353;28;20043;-68
2021/08/19 03:21:29;;;;;;;30.67;13.27;;;;;;;16.33;88.34;101084.25;5113274;28;20063;-68
2021/08/19 03:23:59;;;;;;;26.45;13.38;;;;;;;16.41;87.71;101082.31;5079908;28;20403;-68
2021/08/19 03:26:26;;;;;;;29.77;13.77;;;;;;;16.42;88.06;101080.47;5111125;28;20036;-68
2021/08/19 03:28:52;;;;;;;28.02;13.90;;;;;;;16.45;87.77;101082.78;5095585;28;20040;-68
2021/08/19 03:31:19;;;;;;;26.63;13.43;;;;;;;16.43;88.20;101082.97;5114083;28;20031;-68
2021/08/19 03:33:46;;;;;;;24.55;13.45;;;;;;;16.39;87.91;101081.69;5113837;28;20080;-68
2021/08/19 03:36:13;;;;;;;32.47;13.13;;;;;;;16.53;87.21;101074.66;5114217;28;20062;-68
2021/08/19 03:38:42;;;;;;;27.80;13.02;;;;;;;16.63;86.45;101079.75;5114458;28;20061;-68
2021/08/19 03:41:10;;;;;;;30.33;12.30;;;;;;;16.51;86.91;101072.16;5114315;28;20040;-68
2021/08/19 03:43:37;;;;;;;30.20;12.75;;;;;;;16.45;87.46;101075.59;5112761;28;20126;-68
2021/08/19 03:46:04;;;;;;;26.10;12.85;;;;;;;16.42;86.94;101080.47;5113602;28;20054;-69
2021/08/19 03:48:31;;;;;;;37.55;12.73;;;;;;;16.43;87.04;101072.25;5113920;28;20514;-69
2021/08/19 03:50:59;;;;;;;31.75;12.75;;;;;;;16.55;86.34;101075.28;5113795;28;20067;-69
2021/08/19 03:53:25;;;;;;;22.75;12.48;;;;;;;16.53;86.28;101074.66;5113879;28;20122;-69
2021/08/19 03:55:52;;;;;;;26.60;12.57;;;;;;;16.47;86.66;101078.06;5095471;28;20040;-69
2021/08/19 03:58:19;;;;;;;26.17;12.50;;;;;;;16.41;87.16;101070.75;5112040;28;20044;-68
2021/08/19 04:00:47;;;;;;;26.67;13.00;;;;;;;16.45;87.02;101074.75;5112306;28;20046;-69
2021/08/19 04:03:14;;;;;;;24.15;12.32;;;;;;;16.58;86.01;101066.06;5100230;28;20044;-68
2021/08/19 04:05:41;;;;;;;33.33;12.35;;;;;;;16.46;86.19;101065.69;5079593;28;20123;-68
2021/08/19 04:08:08;;;;;;;23.00;11.98;;;;;;;16.50;86.03;101062.47;5093103;28;20048;-69
2021/08/19 04:10:35;;;;;;;27.25;12.50;;;;;;;16.55;85.55;101067.25;5091625;28;20036;-69
2021/08/19 04:13:02;;;;;;;28.15;12.20;;;;;;;16.64;84.74;101076.84;5104990;28;20380;-68
2021/08/19 04:15:29;;;;;;;26.83;11.88;;;;;;;16.53;85.91;101076.50;5111756;28;20042;-69
2021/08/19 04:17:56;;;;;;;28.77;13.48;;;;;;;16.47;85.83;101072.72;5111927;28;20062;-68
2021/08/19 04:20:23;;;;;;;27.38;12.50;;;;;;;16.60;85.27;101077.44;5111525;28;20044;-68
2021/08/19 04:22:49;;;;;;;25.55;12.45;;;;;;;16.59;85.65;101067.72;5113210;28;20047;-69
2021/08/19 04:25:16;;;;;;;29.35;12.65;;;;;;;16.55;84.86;101069.13;5112123;28;20104;-69
2021/08/19 04:27:43;;;;;;;27.60;12.13;;;;;;;16.47;84.84;101062.84;5103182;28;20036;-69
2021/08/19 04:30:10;;;;;;;29.50;12.52;;;;;;;16.38;85.85;101071.16;5099999;28;20038;-68
2021/08/19 04:32:37;;;;;;;24.08;12.77;;;;;;;16.45;84.72;101077.44;5111877;28;20064;-68
2021/08/19 04:35:05;;;;;;;25.90;12.50;;;;;;;16.44;84.92;101079.25;5111861;28;20046;-68
2021/08/19 04:37:34;;;;;;;23.45;11.57;;;;;;;16.53;83.89;101077.31;5111476;28;20484;-68
2021/08/19 04:40:03;;;;;;;22.65;10.93;;;;;;;16.48;84.09;101071.69;5109849;28;20411;-69
2021/08/19 04:42:29;;;;;;;25.35;12.07;;;;;;;16.46;84.79;101071.91;5112448;28;20050;-68
2021/08/19 04:44:56;;;;;;;20.98;11.35;;;;;;;16.49;84.41;101074.19;5113079;28;20042;-68
2021/08/19 04:47:23;;;;;;;27.20;11.55;;;;;;;16.46;84.54;101071.03;5112840;28;20051;-68
2021/08/19 04:49:49;;;;;;;25.15;11.13;;;;;;;16.46;84.38;101076.41;5094699;28;20035;-69
2021/08/19 04:52:16;;;;;;;20.75;10.90;;;;;;;16.58;83.60;101076.78;5094364;28;20407;-68
2021/08/19 04:54:43;;;;;;;20.63;11.35;;;;;;;16.53;83.58;101077.31;5113061;28;20039;-68
2021/08/19 04:57:10;;;;;;;23.98;10.68;;;;;;;16.55;83.71;101083.31;5112525;28;20118;-69
2021/08/19 04:59:36;;;;;;;23.38;10.93;;;;;;;16.47;83.61;101076.22;5094781;28;20035;-69
2021/08/19 05:02:03;;;;;;;22.27;10.82;;;;;;;16.54;83.87;101083.53;5111656;28;20059;-69
2021/08/19 05:04:30;;;;;;;21.83;10.80;;;;;;;16.41;84.58;101074.28;5094608;28;20126;-69
2021/08/19 05:06:57;;;;;;;23.27;11.35;;;;;;;16.45;83.83;101075.59;5094616;28;20051;-69
2021/08/19 05:09:23;;;;;;;19.52;10.40;;;;;;;16.56;83.45;101082.31;5094535;28;20040;-68
2021/08/19 05:11:50;;;;;;;23.10;11.40;;;;;;;16.48;83.66;101085.06;5110914;28;20035;-68
2021/08/19 05:14:17;;;;;;;26.38;10.77;;;;;;;16.54;83.49;101080.84;5111384;28;20496;-69
2021/08/19 05:16:43;;;;;;;22.65;10.40;;;;;;;16.59;83.33;101081.97;5092659;28;20035;-69
2021/08/19 05:19:10;;;;;;;24.10;10.68;;;;;;;16.54;83.71;101084.34;5110875;28;20063;-69
2021/08/19 05:21:39;;;;;;;20.73;10.48;;;;;;;16.56;83.11;101090.34;5111207;28;20046;-68
2021/08/19 05:24:07;;;;;;;19.85;10.43;;;;;;;16.55;83.37;101094.03;5111410;28;20046;-69
2021/08/19 05:26:34;;;;;;;23.95;10.18;;;;;;;16.74;82.24;101091.84;5112309;28;20044;-69
2021/08/19 05:29:00;;;;;;;17.30;9.43;;;;;;;16.74;82.22;101089.97;5113198;28;20492;-69
2021/08/19 05:31:27;;;;;;;17.25;10.02;;;;;;;16.63;83.05;101101.16;5096649;28;20093;-69
2021/08/19 05:33:55;;;;;;;18.48;10.13;;;;;;;16.67;82.44;101097.91;5113297;28;20396;-68
2021/08/19 05:36:21;;;;;;;21.80;10.13;;;;;;;16.49;83.49;101097.47;5116287;27;20043;-69
2021/08/19 05:38:48;;;;;;;25.17;11.02;;;;;;;16.58;83.06;101103.56;5113135;28;20104;-69
2021/08/19 05:41:15;;;;;;;25.27;10.02;;;;;;;16.59;82.58;101103.38;5114822;28;20088;-69
2021/08/19 05:43:42;;;;;;;20.65;10.38;;;;;;;16.64;82.34;101094.78;5114658;28;20047;-68
2021/08/19 05:46:09;;;;;;;21.00;10.38;;;;;;;16.59;82.76;101105.22;5115297;28;20415;-68
2021/08/19 05:48:36;;;;;;;23.33;10.93;;;;;;;16.67;82.68;101100.59;5115482;28;20067;-68
2021/08/19 05:51:03;;;;;;;23.45;11.00;;;;;;;16.65;82.49;101097.28;5097868;28;20511;-68
2021/08/19 05:53:30;;;;;;;19.48;10.15;;;;;;;16.59;83.45;101107.88;5081050;28;20047;-68
2021/08/19 05:55:56;;;;;;;20.13;10.57;;;;;;;16.62;83.16;101103.00;5097725;28;20071;-68
2021/08/19 05:58:23;;;;;;;22.23;11.07;;;;;;;16.65;82.86;101099.97;5114470;28;20059;-69
2021/08/19 06:00:50;;;;;;;22.90;11.05;;;;;;;16.69;82.52;101103.91;5118158;28;20031;-68
2021/08/19 06:03:20;;;;;;;23.20;11.38;;;;;;;16.67;82.32;101107.81;5102023;28;20035;-68
2021/08/19 06:05:48;;;;;;;24.50;11.57;;;;;;;16.63;82.34;101107.34;5094105;28;20416;-67
2021/08/19 06:08:15;;;;;;;22.60;11.20;;;;;;;16.67;82.44;101110.50;5076917;28;20044;-69
2021/08/19 06:10:42;;;;;;;24.98;11.13;;;;;;;16.80;82.06;101113.34;5095016;28;20038;-69
2021/08/19 06:13:09;;;;;;;19.83;10.98;;;;;;;16.69;82.32;101119.16;5114021;28;20118;-67
2021/08/19 06:15:36;;;;;;;21.13;11.25;;;;;;;16.80;81.92;101112.50;5115244;28;20044;-69
2021/08/19 06:18:03;;;;;;;23.60;11.20;;;;;;;16.74;82.06;101108.72;5115388;28;20054;-69
2021/08/19 06:20:30;;;;;;;25.50;10.88;;;;;;;16.70;83.10;101116.31;5112023;28;20048;-69
2021/08/19 06:22:57;;;;;;;21.27;11.60;;;;;;;16.81;82.14;101123.03;5115253;27;20054;-67
2021/08/19 06:25:24;;;;;;;25.90;12.13;;;;;;;16.96;81.24;101115.03;5097395;28;20067;-69
2021/08/19 06:27:53;;;;;;;28.17;11.43;;;;;;;16.74;81.59;101121.31;5114535;28;20043;-69
2021/08/19 06:30:20;;;;;;;28.50;12.48;;;;;;;16.67;82.12;101121.19;5103662;28;20048;-69
2021/08/19 06:32:47;;;;;;;25.23;11.90;;;;;;;16.83;81.29;101117.53;5104697;28;20062;-69
2021/08/19 06:35:14;;;;;;;23.50;12.20;;;;;;;16.72;81.98;101124.16;5100637;28;20036;-69
2021/08/19 06:37:41;;;;;;;21.17;11.05;;;;;;;16.73;82.36;101123.13;5103808;28;20073;-69
2021/08/19 06:40:08;;;;;;;21.60;11.98;;;;;;;16.78;81.61;101125.25;5114916;28;20046;-67
2021/08/19 06:42:35;;;;;;;27.77;11.70;;;;;;;16.94;80.68;101121.59;5113305;28;20043;-67
2021/08/19 06:45:02;;;;;;;23.70;12.07;;;;;;;16.79;81.56;101121.56;5113496;28;20039;-68
2021/08/19 06:47:29;;;;;;;28.80;13.02;;;;;;;16.82;81.09;101121.19;5093391;28;20058;-68
2021/08/19 06:49:55;;;;;;;26.10;12.27;;;;;;;16.89;81.14;101122.13;5093229;28;20044;-69
2021/08/19 06:52:22;;;;;;;23.55;12.15;;;;;;;16.82;81.65;101126.56;5076566;28;20044;-68
2021/08/19 06:54:49;;;;;;;25.65;12.25;;;;;;;16.84;81.55;101120.00;5094402;28;20044;-68
2021/08/19 06:57:16;;;;;;;24.10;12.82;;;;;;;16.92;81.31;101131.66;5093964;28;20127;-68
2021/08/19 06:59:43;;;;;;;23.88;12.70;;;;;;;16.84;81.96;101130.72;5093136;28;20048;-68
2021/08/19 07:02:09;;;;;;;25.52;12.65;;;;;;;17.06;80.78;101138.84;5094300;28;20040;-68
2021/08/19 07:04:36;;;;;;;26.10;13.15;;;;;;;17.03;81.11;101131.19;5093225;28;20109;-68
2021/08/19 07:07:03;;;;;;;25.10;12.77;;;;;;;17.00;80.56;101140.41;5092869;28;20054;-68
2021/08/19 07:09:30;;;;;;;25.40;13.15;;;;;;;17.06;80.30;101134.34;5113291;28;20039;-68
2021/08/19 07:11:57;;;;;;;28.58;13.30;;;;;;;17.07;80.34;101135.16;5113125;28;20138;-68
2021/08/19 07:14:23;;;;;;;26.92;12.82;;;;;;;17.14;79.71;101130.72;5114207;28;20123;-68
2021/08/19 07:16:50;;;;;;;26.05;12.57;;;;;;;17.07;80.36;101124.44;5094933;28;20127;-68
2021/08/19 07:19:17;;;;;;;26.25;13.27;;;;;;;17.16;79.56;101130.53;5113109;28;20518;-68
2021/08/19 07:21:45;;;;;;;27.70;13.38;;;;;;;17.10;79.95;101133.94;5112874;28;20430;-68
2021/08/19 07:24:12;;;;;;;27.75;13.20;;;;;;;17.09;79.93;101125.06;5114514;28;20050;-68
2021/08/19 07:26:39;;;;;;;25.42;13.30;;;;;;;17.06;79.95;101136.16;5114048;28;20046;-68
2021/08/19 07:29:06;;;;;;;29.08;13.18;;;;;;;17.05;80.37;101129.97;5112724;28;20058;-68
2021/08/19 07:31:35;;;;;;;25.42;13.07;;;;;;;17.10;80.97;101132.09;5094100;28;20046;-68
2021/08/19 07:34:02;;;;;;;26.63;13.43;;;;;;;17.16;81.31;101133.19;5111073;28;20122;-68
2021/08/19 07:36:29;;;;;;;28.50;14.05;;;;;;;17.29;79.50;101132.53;5114074;28;20381;-68
2021/08/19 07:38:59;;;;;;;26.60;13.43;;;;;;;17.09;80.38;101133.13;5112610;28;20499;-68
2021/08/19 07:41:26;;;;;;;27.33;13.18;;;;;;;17.12;80.59;101146.16;5112224;28;20048;-68
2021/08/19 07:43:53;;;;;;;23.05;12.23;;;;;;;17.13;80.35;101153.16;5113341;28;20039;-68
2021/08/19 07:46:20;;;;;;;25.40;12.00;;;;;;;17.20;80.28;101137.16;5113255;28;20051;-68
2021/08/19 07:48:47;;;;;;;22.15;12.27;;;;;;;17.08;80.46;101147.53;5113740;28;20036;-68
2021/08/19 07:51:15;;;;;;;22.73;11.82;;;;;;;17.19;80.05;101148.88;5112793;28;20123;-68
2021/08/19 07:53:43;;;;;;;21.00;11.75;;;;;;;17.25;80.05;101151.66;5112428;28;20049;-68
2021/08/19 07:56:10;;;;;;;27.48;13.02;;;;;;;17.14;80.57;101154.00;5113626;28;20511;-68
2021/08/19 07:58:36;;;;;;;25.17;12.25;;;;;;;17.16;80.16;101155.47;5112180;28;20415;-68
2021/08/19 08:01:03;;;;;;;25.73;13.00;;;;;;;17.15;80.14;101144.94;5113484;28;20036;-68
2021/08/19 08:03:30;;;;;;;27.70;13.77;;;;;;;17.21;79.86;101160.28;5097769;28;20067;-68
2021/08/19 08:05:57;;;;;;;25.83;13.30;;;;;;;17.07;80.03;101157.41;5092668;28;20044;-68
2021/08/19 08:08:23;;;;;;;30.10;13.57;;;;;;;17.12;79.77;101156.88;5112175;28;20046;-68
2021/08/19 08:10:50;;;;;;;22.30;13.38;;;;;;;17.10;79.74;101158.91;5111943;28;20047;-69
2021/08/19 08:13:17;;;;;;;24.95;13.85;;;;;;;17.07;79.66;101153.91;5112887;28;20048;-68
2021/08/19 08:15:44;;;;;;;24.10;12.90;;;;;;;17.00;80.58;101150.31;5112206;28;20051;-68
2021/08/19 08:18:15;;;;;;;29.20;13.65;;;;;;;17.06;80.58;101158.44;5112046;28;20491;-68
2021/08/19 08:20:42;;;;;;;26.50;13.65;;;;;;;17.20;79.79;101159.44;5112985;28;20092;-68
2021/08/19 08:23:09;;;;;;;29.63;13.75;;;;;;;17.14;79.88;101160.19;5112151;28;20044;-68
2021/08/19 08:25:36;;;;;;;30.15;13.88;;;;;;;17.05;80.60;101162.13;5112701;28;20111;-68
2021/08/19 08:28:09;;;;;;;25.48;14.07;;;;;;;17.18;79.56;101158.78;5114201;28;20050;-68
2021/08/19 08:30:38;;;;;;;28.88;14.45;;;;;;;17.19;78.97;101159.63;5101396;28;20035;-68
2021/08/19 08:33:07;;;;;;;27.35;13.43;;;;;;;17.11;79.31;101159.72;5104370;28;20047;-68
2021/08/19 08:35:37;;;;;;;28.25;13.65;;;;;;;17.03;80.16;101166.03;5110013;28;20564;-68
2021/08/19 08:38:07;;;;;;;29.25;13.55;;;;;;;17.05;79.95;101161.31;5111389;28;20040;-68
2021/08/19 08:40:37;;;;;;;26.00;13.80;;;;;;;17.19;79.39;101168.50;5113142;28;20046;-68
2021/08/19 08:43:05;;;;;;;35.10;13.75;;;;;;;17.03;79.80;101158.00;5111509;28;20518;-68
2021/08/19 08:45:34;;;;;;;28.85;13.98;;;;;;;17.18;78.87;101160.66;5110974;28;20042;-70
2021/08/19 08:48:05;;;;;;;31.42;13.90;;;;;;;17.19;78.94;101171.19;5113071;28;20063;-68
2021/08/19 08:50:33;;;;;;;31.13;14.10;;;;;;;17.11;79.24;101171.28;5094566;28;20471;-68
2021/08/19 08:53:00;;;;;;;28.77;14.85;;;;;;;17.16;78.92;101163.50;5112773;28;20050;-68
2021/08/19 08:55:28;;;;;;;29.10;14.10;;;;;;;17.15;79.00;101174.41;5113017;28;20537;-68
2021/08/19 08:57:55;;;;;;;28.80;13.82;;;;;;;17.25;78.11;101174.97;5111009;28;20039;-68
2021/08/19 09:00:22;;;;;;;28.88;14.05;;;;;;;17.15;78.93;101177.91;5112666;28;20125;-68
2021/08/19 09:03:00;;;;;;;27.58;13.80;;;;;;;17.13;78.65;101171.91;5112670;28;20066;-68
2021/08/19 09:05:29;;;;;;;24.67;14.05;;;;;;;17.19;78.22;101181.06;5096853;28;20146;-68
2021/08/19 09:07:59;;;;;;;27.02;12.88;;;;;;;17.26;77.97;101176.63;5117089;28;20139;-68
2021/08/19 09:10:30;;;;;;;24.25;13.30;;;;;;;17.39;77.88;101178.63;5116502;28;20108;-69
2021/08/19 09:13:06;;;;;;;30.88;13.30;;;;;;;17.46;77.48;101176.84;5116573;28;20035;-68
2021/08/19 09:15:32;;;;;;;27.05;12.55;;;;;;;17.66;77.23;101177.06;5115603;28;20043;-68
2021/08/19 09:18:01;;;;;;;21.48;11.32;;;;;;;17.77;76.07;101173.91;5115652;28;20044;-68
2021/08/19 09:20:35;;;;;;;26.27;12.95;;;;;;;18.09;74.95;101173.59;5098420;28;20507;-68
2021/08/19 09:23:14;;;;;;;23.38;11.75;;;;;;;18.04;75.11;101179.53;5116183;28;20036;-68
2021/08/19 09:25:44;;;;;;;21.70;10.63;;;;;;;18.12;73.74;101183.94;5116585;27;20522;-68
2021/08/19 09:30:59;;;;;;;21.05;10.02;;;;;;;18.10;71.81;101175.25;5151574;27;20167;-68
2021/08/19 09:33:29;;;;;;;20.08;9.88;;;;;;;18.16;72.79;101186.06;5128375;28;20090;-68
2021/08/19 09:35:57;;;;;;;17.48;9.50;;;;;;;18.08;71.72;101179.97;5111326;28;20093;-68
2021/08/19 09:38:34;;;;;;;18.55;9.35;;;;;;;18.11;72.50;101182.28;5092272;28;20126;-68
2021/08/19 09:41:07;;;;;;;18.30;9.93;;;;;;;18.04;72.89;101184.91;5109965;28;20130;-68
2021/08/19 09:43:36;;;;;;;19.15;9.65;;;;;;;18.08;73.92;101185.34;5110077;28;20063;-68
2021/08/19 09:46:03;;;;;;;18.35;9.13;;;;;;;18.21;72.16;101186.31;5091268;28;20442;-68
2021/08/19 09:48:30;;;;;;;18.55;9.35;;;;;;;18.18;72.43;101184.00;5074887;28;20454;-68
2021/08/19 09:51:19;;;;;;;23.00;9.68;;;;;;;18.27;70.79;101179.34;5091611;28;20416;-68
2021/08/19 09:53:50;;;;;;;18.02;9.00;;;;;;;18.26;70.77;101179.53;5109908;28;20127;-68
2021/08/19 09:56:36;;;;;;;18.33;9.30;;;;;;;18.45;70.14;101172.66;5074532;28;20418;-68
2021/08/19 09:59:25;;;;;;;17.55;8.60;;;;;;;18.45;69.46;101178.84;5125091;28;20039;-68
2021/08/19 10:01:54;;;;;;;17.75;8.75;;;;;;;18.37;70.15;101176.31;5113885;28;20412;-67
2021/08/19 10:04:25;;;;;;;16.52;8.10;;;;;;;18.46;69.92;101182.38;5080567;28;20071;-69
2021/08/19 10:06:53;;;;;;;16.40;8.27;;;;;;;18.39;69.66;101183.16;5100735;28;20035;-64
2021/08/19 10:09:20;;;;;;;21.38;8.13;;;;;;;18.37;70.33;101185.22;5087870;28;20043;-65
2021/08/19 10:11:48;;;;;;;20.55;7.80;;;;;;;18.48;69.56;101177.63;5109579;28;20062;-64
2021/08/19 10:14:18;;;;;;;20.70;7.65;;;;;;;18.32;68.71;101184.97;5110774;28;20120;-65
2021/08/19 10:16:46;;;;;;;21.48;10.18;;;;;;;18.29;69.76;101176.47;5091486;28;20043;-63
2021/08/19 10:19:38;;;;;;;21.10;10.20;;;;;;;18.16;70.59;101172.63;5095925;28;20040;-64
2021/08/19 10:22:09;;;;;;;18.67;7.63;;;;;;;18.08;69.88;101175.47;5123121;28;20036;-64
2021/08/19 10:24:39;;;;;;;18.15;7.35;;;;;;;18.05;69.53;101177.72;5109228;28;20131;-65
2021/08/19 10:27:20;;;;;;;16.13;6.72;;;;;;;18.03;70.09;101185.94;5119124;28;20040;-64
2021/08/19 10:29:53;;;;;;;14.30;6.67;;;;;;;17.81;70.86;101183.22;5128784;28;20090;-64
2021/08/19 10:32:24;;;;;;;12.50;6.25;;;;;;;17.96;70.60;101193.09;5109684;28;20326;-64
2021/08/19 10:34:59;;;;;;;15.13;6.25;;;;;;;17.98;70.75;101185.69;5101523;28;20581;-64
2021/08/19 10:43:37;;;;;;;16.88;6.55;;;;;;;17.92;71.20;101179.25;5110065;27;20373;-64
2021/08/19 10:46:06;;;;;;;13.55;6.00;;;;;;;17.87;71.84;101183.53;5105403;28;20029;-68
2021/08/19 10:48:44;;;;;;;13.52;6.47;;;;;;;17.98;71.05;101185.69;5105035;28;20040;-68
2021/08/19 10:51:11;;;;;;;14.32;6.70;;;;;;;17.89;71.34;101181.47;5080130;28;20062;-69
2021/08/19 10:53:38;;;;;;;13.55;6.15;;;;;;;17.89;71.35;101178.78;5088658;28;20045;-69
2021/08/19 10:56:05;;;;;;;11.98;6.05;;;;;;;17.95;71.50;101186.88;5088711;28;20044;-68
2021/08/19 10:58:37;;;;;;;18.50;7.15;;;;;;;17.87;71.67;101180.84;5088189;28;20432;-67
2021/08/19 11:03:54;;;;;;;16.48;6.78;;;;;;;17.82;72.56;101187.56;5089497;27;20125;-68
2021/08/19 11:06:24;;;;;;;17.75;6.70;;;;;;;17.85;72.89;101189.06;5071703;28;20049;-68
2021/08/19 11:08:55;;;;;;;12.68;6.15;;;;;;;18.02;71.83;101184.28;5072544;28;20044;-68
2021/08/19 11:11:30;;;;;;;14.02;6.07;;;;;;;18.01;72.45;101183.44;5072234;28;20048;-68
2021/08/19 11:13:59;;;;;;;13.27;5.97;;;;;;;18.16;70.77;101193.28;5089561;28;20044;-68
2021/08/19 11:16:26;;;;;;;16.92;5.97;;;;;;;18.11;71.52;101183.13;5089836;28;20044;-68
2021/08/19 11:18:53;;;;;;;11.65;5.82;;;;;;;17.99;71.79;101182.81;5089869;28;20127;-68
2021/08/19 11:21:19;;;;;;;15.00;5.75;;;;;;;18.01;71.91;101185.31;5071393;28;20044;-68
2021/08/19 11:23:47;;;;;;;14.73;5.60;;;;;;;18.12;70.94;101192.84;5071529;28;20051;-68
2021/08/19 11:26:20;;;;;;;13.00;5.47;;;;;;;18.18;70.99;101191.25;5090582;28;20044;-68
2021/08/19 11:28:49;;;;;;;14.38;5.90;;;;;;;18.10;71.20;101189.53;5068968;28;20409;-68
2021/08/19 11:31:24;;;;;;;15.43;5.60;;;;;;;18.06;71.30;101185.53;5085021;28;20044;-68